Time;durP1;ratioP1;P1;durP2;ratioP2;P2;SDS_P1;SDS_P2;PMS_P1;PMS_P2;Temp;Humidity;BMP_temperature;BMP_pressure;BME280_temperature;BME280_humidity;BME280_pressure;Samples;Min_cycle;Max_cycle;Signal;HPM_P1;HPM_P2
2022/10/07 00:00:04;;;;;;;12.15;3.12;;;;;;;9.48;74.27;102509.20;1666055;85;21094;-88
2022/10/07 00:02:33;;;;;;;11.60;2.90;;;;;;;9.45;74.17;102520.42;1649226;85;21054;-82
2022/10/07 00:05:00;;;;;;;9.20;3.10;;;;;;;9.41;74.14;102519.75;1655889;85;21765;-87
2022/10/07 00:07:29;;;;;;;13.22;2.87;;;;;;;9.36;74.12;102517.67;1658613;85;22004;-82
2022/10/07 00:09:55;;;;;;;13.58;3.83;;;;;;;9.30;74.18;102523.48;1652686;85;21085;-82
2022/10/07 00:12:22;;;;;;;8.33;3.40;;;;;;;9.24;74.22;102518.77;1660397;85;21183;-88
2022/10/07 00:14:49;;;;;;;12.43;2.80;;;;;;;9.18;74.26;102514.48;1668929;84;21062;-84
2022/10/07 00:17:18;;;;;;;10.28;2.83;;;;;;;9.12;74.32;102508.83;1674934;85;21780;-84
2022/10/07 00:19:46;;;;;;;11.93;3.40;;;;;;;9.07;74.41;102508.58;1673249;85;21078;-86
2022/10/07 00:22:13;;;;;;;9.00;3.27;;;;;;;9.01;74.51;102512.16;1657277;85;21085;-82
2022/10/07 00:24:40;;;;;;;12.13;3.30;;;;;;;8.99;74.61;102511.17;1674113;85;21087;-86
2022/10/07 00:27:07;;;;;;;9.70;3.50;;;;;;;8.94;74.65;102506.94;1674273;85;21117;-87
2022/10/07 00:29:34;;;;;;;11.83;3.22;;;;;;;8.92;74.69;102504.63;1657378;85;21759;-81
2022/10/07 00:32:00;;;;;;;13.03;3.10;;;;;;;8.89;74.73;102508.37;1665570;85;21066;-81
2022/10/07 00:34:27;;;;;;;13.03;3.20;;;;;;;8.85;74.79;102509.42;1660229;85;21580;-81
2022/10/07 00:36:56;;;;;;;9.68;2.95;;;;;;;8.82;74.85;102504.91;1675690;84;39740;-86
2022/10/07 00:39:23;;;;;;;13.00;3.85;;;;;;;8.80;74.92;102504.30;1662355;85;21567;-82
2022/10/07 00:41:51;;;;;;;10.55;3.15;;;;;;;8.78;75.00;102500.67;1666692;85;21789;-81
2022/10/07 00:44:38;;;;;;;7.80;3.67;;;;;;;8.74;75.02;102500.89;1651911;85;21062;-81
2022/10/07 00:47:24;;;;;;;15.10;3.25;;;;;;;8.72;75.07;102504.73;1652291;85;21092;-82
2022/10/07 00:50:07;;;;;;;10.93;3.37;;;;;;;8.68;75.07;102504.05;1661648;84;21094;-81
2022/10/07 00:52:41;;;;;;;13.60;3.30;;;;;;;8.66;75.11;102500.84;1666180;85;21102;-81
2022/10/07 00:55:11;;;;;;;12.23;2.83;;;;;;;8.60;75.11;102497.44;1646213;85;21810;-85
2022/10/07 00:57:38;;;;;;;15.10;3.92;;;;;;;8.56;75.20;102490.20;1662553;85;21145;-87
2022/10/07 01:00:06;;;;;;;10.80;3.30;;;;;;;8.55;75.25;102492.31;1673406;85;21113;-83
2022/10/07 01:02:34;;;;;;;11.12;3.50;;;;;;;8.53;75.29;102493.52;1657198;85;21652;-81
2022/10/07 01:05:03;;;;;;;13.30;3.00;;;;;;;8.51;75.35;102490.31;1667326;85;21091;-84
2022/10/07 01:07:30;;;;;;;13.43;3.72;;;;;;;8.48;75.36;102488.39;1666233;85;21791;-85
2022/10/07 01:09:58;;;;;;;13.85;3.20;;;;;;;8.43;75.34;102485.91;1670263;85;21101;-80
2022/10/07 01:12:45;;;;;;;12.78;3.08;;;;;;;8.42;75.39;102484.50;1670432;85;21726;-81
2022/10/07 01:15:26;;;;;;;13.40;3.20;;;;;;;8.39;75.42;102485.19;1637004;86;21094;-85
2022/10/07 01:18:09;;;;;;;10.28;3.15;;;;;;;8.33;75.44;102480.86;1671248;84;21086;-85
2022/10/07 01:21:06;;;;;;;8.50;3.17;;;;;;;8.28;75.45;102481.89;1656287;85;21243;-85
2022/10/07 01:23:55;;;;;;;11.63;3.35;;;;;;;8.23;75.54;102482.01;1673428;85;21691;-85
2022/10/07 01:26:51;;;;;;;12.40;3.47;;;;;;;8.17;75.51;102479.02;1675894;85;21603;-81
2022/10/07 01:29:26;;;;;;;12.05;3.30;;;;;;;8.12;75.67;102483.05;1673917;85;21544;-80
2022/10/07 01:32:03;;;;;;;11.97;3.58;;;;;;;8.05;75.79;102473.91;1672750;85;21773;-81
2022/10/07 01:34:31;;;;;;;12.85;4.03;;;;;;;8.02;75.92;102471.50;1674565;85;21761;-81
2022/10/07 01:36:58;;;;;;;9.85;3.35;;;;;;;7.97;76.00;102465.53;1674666;85;21039;-81
2022/10/07 01:39:30;;;;;;;14.25;3.95;;;;;;;7.93;76.05;102464.84;1660286;85;21107;-81
2022/10/07 01:41:57;;;;;;;11.28;4.10;;;;;;;7.91;76.14;102473.02;1667311;85;21106;-85
2022/10/07 01:44:26;;;;;;;13.50;5.40;;;;;;;7.88;76.17;102471.54;1670411;85;21093;-84
2022/10/07 01:46:52;;;;;;;15.20;5.22;;;;;;;7.85;76.19;102467.81;1671121;85;22713;-85
2022/10/07 01:49:19;;;;;;;9.53;4.08;;;;;;;7.81;76.26;102472.33;1655480;85;22338;-85
2022/10/07 01:52:00;;;;;;;15.05;5.12;;;;;;;7.76;76.28;102472.05;1673226;85;21121;-85
2022/10/07 01:55:08;;;;;;;11.18;5.85;;;;;;;7.71;76.37;102465.19;1652309;86;21090;-81
2022/10/07 01:58:12;;;;;;;12.50;4.37;;;;;;;7.69;76.53;102468.53;1652692;85;21114;-81
2022/10/07 02:00:46;;;;;;;14.53;4.95;;;;;;;7.65;76.68;102467.42;1644448;85;21926;-81
2022/10/07 02:03:37;;;;;;;10.68;4.00;;;;;;;7.63;76.84;102466.83;1616332;87;21103;-81
2022/10/07 02:06:18;;;;;;;12.58;4.42;;;;;;;7.58;76.95;102460.90;1625841;87;21104;-81
2022/10/07 02:08:48;;;;;;;48.60;24.60;;;;;;;7.57;77.04;102457.76;1669435;84;21620;-81
2022/10/07 02:11:27;;;;;;;44.65;19.48;;;;;;;7.50;77.10;102454.23;1653069;85;21050;-81
2022/10/07 02:14:17;;;;;;;27.00;10.35;;;;;;;7.51;77.19;102455.16;1664420;85;21773;-85
2022/10/07 02:16:50;;;;;;;26.57;13.85;;;;;;;7.49;77.29;102458.98;1625822;87;21092;-81
2022/10/07 02:19:24;;;;;;;22.35;8.10;;;;;;;7.48;77.42;102454.55;1673244;85;21063;-84
2022/10/07 02:21:51;;;;;;;;;;;;;;;7.47;77.45;102454.44;1654106;85;21268;-83
2022/10/07 02:24:21;;;;;;;17.60;5.92;;;;;;;7.45;77.60;102454.36;1657211;84;20297;-85
2022/10/07 02:26:48;;;;;;;15.70;5.47;;;;;;;7.45;77.60;102454.36;1661345;85;22738;-85
2022/10/07 02:29:16;;;;;;;12.58;4.83;;;;;;;7.44;77.64;102456.87;1672086;85;21088;-84
2022/10/07 02:31:43;;;;;;;12.82;5.00;;;;;;;7.41;77.64;102451.02;1656760;84;21942;-85
2022/10/07 02:34:12;;;;;;;35.03;16.75;;;;;;;7.40;77.67;102449.22;1656535;84;21085;-84
2022/10/07 02:36:49;;;;;;;196.75;130.35;;;;;;;7.38;77.71;102456.97;1656677;84;21631;-85
2022/10/07 02:39:20;;;;;;;81.50;51.53;;;;;;;7.36;77.71;102451.14;1666765;85;21949;-85
2022/10/07 02:41:57;;;;;;;41.98;23.52;;;;;;;7.33;77.76;102452.23;1664881;85;21069;-85
2022/10/07 02:44:47;;;;;;;22.70;10.25;;;;;;;7.29;77.89;102451.13;1673871;85;21093;-85
2022/10/07 02:47:35;;;;;;;18.17;7.05;;;;;;;7.30;77.97;102452.03;1656917;85;21077;-85
2022/10/07 02:50:06;;;;;;;27.00;12.05;;;;;;;7.29;78.06;102451.13;1673854;84;22325;-85
2022/10/07 02:52:33;;;;;;;116.17;69.77;;;;;;;7.28;78.10;102454.95;1684536;85;22364;-85
2022/10/07 02:55:09;;;;;;;45.80;24.72;;;;;;;7.27;78.14;102460.60;1684185;84;21069;-80
2022/10/07 02:57:43;;;;;;;54.38;31.75;;;;;;;7.25;78.21;102460.91;1677146;85;21142;-79
2022/10/07 03:00:10;;;;;;;48.98;25.05;;;;;;;7.23;78.19;102459.00;1673504;85;21599;-80
2022/10/07 03:03:00;;;;;;;55.17;28.23;;;;;;;7.22;78.33;102462.00;1675195;85;21073;-80
2022/10/07 03:05:26;;;;;;;32.65;17.02;;;;;;;7.21;78.31;102461.52;1668234;85;22468;-85
2022/10/07 03:07:57;;;;;;;26.93;13.98;;;;;;;7.20;78.41;102458.38;1647921;85;21074;-79
2022/10/07 03:10:25;;;;;;;55.03;27.17;;;;;;;7.20;78.47;102462.30;1648052;85;21354;-80
2022/10/07 03:12:53;;;;;;;63.73;36.48;;;;;;;7.20;78.47;102458.38;1667133;85;21143;-84
2022/10/07 03:15:21;;;;;;;58.38;31.87;;;;;;;7.19;78.36;102465.34;1656733;85;21085;-80
2022/10/07 03:17:48;;;;;;;53.05;27.82;;;;;;;7.17;78.33;102460.41;1652044;85;21783;-80
2022/10/07 03:20:15;;;;;;;37.35;19.80;;;;;;;7.15;78.38;102453.23;1641650;85;21097;-80
2022/10/07 03:22:42;;;;;;;23.70;10.18;;;;;;;7.13;78.32;102455.78;1645944;85;21599;-80
2022/10/07 03:25:10;;;;;;;17.62;7.03;;;;;;;7.11;78.39;102453.42;1624055;85;21066;-80
2022/10/07 03:27:37;;;;;;;12.73;6.50;;;;;;;7.10;78.40;102453.35;1658527;85;21097;-81
2022/10/07 03:30:05;;;;;;;18.65;5.67;;;;;;;7.06;78.39;102453.92;1672727;85;21793;-81
2022/10/07 03:32:33;;;;;;;13.50;5.87;;;;;;;7.04;78.45;102457.78;1661510;85;21130;-81
2022/10/07 03:35:00;;;;;;;11.22;4.12;;;;;;;7.02;78.47;102455.47;1661445;85;21595;-84
2022/10/07 03:37:28;;;;;;;15.60;5.05;;;;;;;7.01;78.48;102464.11;1666007;85;21054;-85
2022/10/07 03:39:55;;;;;;;12.15;7.05;;;;;;;7.01;78.52;102465.41;1672836;85;21102;-84
2022/10/07 03:42:22;;;;;;;14.75;6.75;;;;;;;6.98;78.44;102463.52;1676447;85;21709;-81
2022/10/07 03:44:49;;;;;;;12.28;4.75;;;;;;;6.96;78.51;102466.44;1676313;85;21069;-81
2022/10/07 03:47:17;;;;;;;11.83;4.85;;;;;;;6.95;78.52;102455.85;1676953;85;21319;-81
2022/10/07 03:49:44;;;;;;;13.20;4.70;;;;;;;6.92;78.45;102457.84;1673409;85;21038;-85
2022/10/07 03:52:11;;;;;;;17.40;4.87;;;;;;;6.89;78.52;102451.11;1677050;85;21201;-85
2022/10/07 03:54:38;;;;;;;10.23;4.17;;;;;;;6.87;78.53;102455.34;1673901;85;23090;-81
2022/10/07 03:57:48;;;;;;;11.35;3.80;;;;;;;6.86;78.56;102456.13;1659849;85;21686;-81
2022/10/07 03:59:36;;;;;;;11.73;4.10;;;;;;;6.85;78.66;102456.02;1674665;84;21090;-88
2022/10/07 04:02:03;;;;;;;13.00;3.98;;;;;;;6.85;78.68;102454.71;1664825;85;21073;-82
2022/10/07 04:04:30;;;;;;;12.98;4.08;;;;;;;6.81;78.63;102455.84;1669312;85;21581;-86
2022/10/07 04:06:56;;;;;;;14.60;4.55;;;;;;;6.79;78.67;102452.20;1659614;85;21062;-81
2022/10/07 04:09:23;;;;;;;11.33;3.67;;;;;;;6.79;78.75;102456.52;1657942;84;21090;-86
2022/10/07 04:11:50;;;;;;;9.25;3.92;;;;;;;6.77;78.79;102455.09;1651126;85;21117;-80
2022/10/07 04:14:24;;;;;;;8.83;3.80;;;;;;;6.76;78.88;102453.30;1660361;84;21042;-87
2022/10/07 04:16:51;;;;;;;12.78;4.40;;;;;;;6.76;78.88;102459.84;1675934;85;21085;-84
2022/10/07 04:19:18;;;;;;;11.10;4.30;;;;;;;6.73;78.84;102450.46;1676903;84;22566;-89
2022/10/07 04:21:45;;;;;;;11.55;4.35;;;;;;;6.73;78.85;102450.87;1657289;85;21039;-92
2022/10/07 04:24:13;;;;;;;11.00;4.45;;;;;;;6.71;78.93;102449.87;1663676;85;21085;-90
2022/10/07 04:26:40;;;;;;;12.37;4.30;;;;;;;6.69;78.99;102451.06;1651060;85;21274;-85
2022/10/07 04:29:07;;;;;;;10.43;3.72;;;;;;;6.67;78.95;102450.47;1665362;85;21141;-88
2022/10/07 04:31:34;;;;;;;12.73;4.67;;;;;;;6.65;79.01;102443.81;1668421;85;21720;-82
2022/10/07 04:34:01;;;;;;;11.20;4.65;;;;;;;6.65;79.10;102439.89;1649024;86;21089;-92
2022/10/07 04:36:28;;;;;;;11.43;4.65;;;;;;;6.64;79.13;102448.94;1649155;85;21042;-89
2022/10/07 04:38:55;;;;;;;12.58;4.40;;;;;;;6.63;79.22;102441.50;1655758;85;21536;-83
2022/10/07 04:41:22;;;;;;;17.32;4.60;;;;;;;6.63;79.18;102444.52;1672583;85;21571;-93
2022/10/07 04:43:56;;;;;;;9.58;4.00;;;;;;;6.63;79.22;102444.11;1674435;84;21804;-92
2022/10/07 04:46:23;;;;;;;13.68;4.70;;;;;;;6.61;79.12;102446.63;1676971;84;21599;-90
2022/10/07 04:48:50;;;;;;;10.95;4.08;;;;;;;6.60;79.12;102436.05;1655777;85;21102;-82
2022/10/07 04:51:19;;;;;;;13.35;3.85;;;;;;;6.59;79.20;102438.17;1675072;85;21128;-91
2022/10/07 04:53:54;;;;;;;10.70;3.87;;;;;;;6.59;79.25;102444.30;1675337;85;21126;-80
2022/10/07 04:56:18;;;;;;;11.75;4.08;;;;;;;6.60;79.31;102446.51;1675081;85;21807;-81
2022/10/07 04:58:45;;;;;;;9.78;3.72;;;;;;;6.59;79.41;102432.53;1670882;85;21091;-88
2022/10/07 05:01:12;;;;;;;9.28;3.70;;;;;;;6.63;79.59;102431.03;1676291;84;21154;-85
2022/10/07 05:03:39;;;;;;;11.57;3.85;;;;;;;6.66;79.65;102431.22;1676521;85;21078;-82
2022/10/07 05:06:06;;;;;;;9.20;4.10;;;;;;;6.70;79.79;102428.41;1672545;84;21090;-90
2022/10/07 05:08:33;;;;;;;14.13;3.90;;;;;;;6.72;79.87;102429.04;1650172;85;22484;-84
2022/10/07 05:11:01;;;;;;;11.43;3.85;;;;;;;6.77;79.92;102421.07;1671602;85;21119;-83
2022/10/07 05:13:28;;;;;;;8.05;4.08;;;;;;;6.81;79.91;102424.80;1669590;85;21069;-93
2022/10/07 05:16:00;;;;;;;12.45;3.80;;;;;;;6.86;79.99;102428.64;1673784;84;21149;-87
2022/10/07 05:18:27;;;;;;;15.32;4.70;;;;;;;6.91;79.98;102427.66;1674494;85;21097;-80
2022/10/07 05:20:54;;;;;;;8.00;3.65;;;;;;;6.94;79.95;102422.20;1674749;85;22708;-80
2022/10/07 05:23:23;;;;;;;8.93;4.28;;;;;;;7.00;80.05;102428.24;1649445;85;21071;-80
2022/10/07 05:25:59;;;;;;;14.47;3.65;;;;;;;7.07;80.04;102424.34;1600961;85;21085;-80
2022/10/07 05:28:26;;;;;;;14.80;4.30;;;;;;;7.12;80.01;102426.45;1639898;86;21101;-80
2022/10/07 05:31:08;;;;;;;8.35;4.30;;;;;;;7.17;79.95;102419.81;1643413;85;21659;-86
2022/10/07 05:33:35;;;;;;;15.63;4.97;;;;;;;7.21;79.88;102432.70;1638054;87;21792;-86
2022/10/07 05:36:02;;;;;;;14.85;4.22;;;;;;;7.26;79.97;102424.72;1640148;86;21126;-86
2022/10/07 05:38:29;;;;;;;14.65;4.03;;;;;;;7.32;79.94;102429.08;1618489;87;21091;-80
2022/10/07 05:40:58;;;;;;;15.63;4.60;;;;;;;7.39;80.00;102427.74;1651648;85;21537;-86
2022/10/07 05:43:27;;;;;;;10.20;3.87;;;;;;;7.47;80.02;102428.23;1673816;85;21074;-80
2022/10/07 05:46:04;;;;;;;12.63;3.80;;;;;;;7.54;79.99;102430.03;1675388;85;21837;-85
2022/10/07 05:48:32;;;;;;;8.88;3.83;;;;;;;7.61;79.95;102430.45;1674423;85;20977;-86
2022/10/07 05:51:00;;;;;;;10.58;3.95;;;;;;;7.69;79.95;102434.45;1651481;85;21063;-80
2022/10/07 05:53:28;;;;;;;7.15;3.45;;;;;;;7.77;79.89;102437.14;1675074;85;21043;-80
2022/10/07 05:55:55;;;;;;;12.33;3.80;;;;;;;7.85;79.87;102433.73;1667753;85;21074;-86
2022/10/07 05:58:22;;;;;;;11.73;3.98;;;;;;;7.93;79.82;102430.76;1641248;86;21889;-80
2022/10/07 06:00:56;;;;;;;11.08;4.50;;;;;;;8.01;79.73;102431.65;1624458;87;21780;-86
2022/10/07 06:03:24;;;;;;;9.80;4.00;;;;;;;8.08;79.69;102431.22;1646624;85;21656;-80
2022/10/07 06:05:51;;;;;;;8.68;4.03;;;;;;;8.15;79.61;102436.05;1647540;85;21587;-84
2022/10/07 06:08:21;;;;;;;10.60;4.03;;;;;;;8.22;79.59;102432.06;1649267;85;21066;-88
2022/10/07 06:13:34;;;;;;;10.03;4.20;;;;;;;8.40;79.49;102440.17;1649406;84;21093;-86
2022/10/07 06:16:03;;;;;;;12.20;4.50;;;;;;;8.48;79.43;102436.31;1649419;85;21035;-88
2022/10/07 06:18:30;;;;;;;9.18;3.98;;;;;;;8.55;79.38;102430.21;1649478;85;21157;-80
2022/10/07 06:20:59;;;;;;;14.73;4.22;;;;;;;8.63;79.33;102437.23;1648711;85;21683;-80
2022/10/07 06:23:29;;;;;;;11.12;4.15;;;;;;;8.71;79.23;102437.30;1673667;85;21777;-87
2022/10/07 06:26:02;;;;;;;12.55;4.50;;;;;;;8.79;79.20;102432.92;1662807;84;21062;-86
2022/10/07 06:28:38;;;;;;;9.60;4.35;;;;;;;8.86;79.08;102444.26;1649479;85;21560;-86
2022/10/07 06:31:11;;;;;;;9.60;3.98;;;;;;;8.91;79.07;102438.88;1663610;85;21077;-80
2022/10/07 06:33:40;;;;;;;14.15;4.78;;;;;;;8.97;79.03;102440.54;1656730;85;21102;-80
2022/10/07 06:36:10;;;;;;;14.00;4.92;;;;;;;9.06;79.04;102445.44;1675826;85;21765;-82
2022/10/07 06:38:37;;;;;;;13.25;4.90;;;;;;;9.14;78.97;102449.41;1654002;85;21089;-86
2022/10/07 06:41:05;;;;;;;15.30;5.08;;;;;;;9.20;78.89;102441.91;1648800;85;21137;-80
2022/10/07 06:43:33;;;;;;;13.53;4.75;;;;;;;9.29;78.89;102441.12;1650009;85;20995;-85
2022/10/07 06:46:01;;;;;;;8.53;4.03;;;;;;;9.38;78.83;102449.91;1650033;85;21019;-86
2022/10/07 06:48:29;;;;;;;11.00;4.22;;;;;;;9.45;78.81;102448.14;1649960;85;21771;-81
2022/10/07 06:51:02;;;;;;;15.28;4.87;;;;;;;9.55;78.83;102448.24;1634685;85;21375;-80
2022/10/07 06:53:28;;;;;;;13.05;4.40;;;;;;;9.64;78.76;102451.81;1658588;85;21049;-86
2022/10/07 06:55:58;;;;;;;10.43;4.35;;;;;;;9.72;78.68;102447.88;1674684;85;21066;-80
2022/10/07 06:58:25;;;;;;;13.13;4.70;;;;;;;9.83;78.73;102453.73;1675913;84;21650;-80
2022/10/07 07:00:54;;;;;;;12.18;4.55;;;;;;;9.92;78.69;102452.93;1658287;85;21760;-80
2022/10/07 07:03:22;;;;;;;11.20;3.98;;;;;;;10.03;78.66;102456.16;1668398;85;21066;-86
2022/10/07 07:05:50;;;;;;;17.75;4.83;;;;;;;10.13;78.60;102463.72;1666063;85;21046;-86
2022/10/07 07:08:22;;;;;;;11.70;4.10;;;;;;;10.24;78.56;102461.67;1674726;84;21556;-86
2022/10/07 07:10:49;;;;;;;12.55;4.45;;;;;;;10.33;78.40;102456.94;1674298;84;21133;-86
2022/10/07 07:13:18;;;;;;;15.65;5.03;;;;;;;10.44;78.35;102459.73;1650437;85;21998;-86
2022/10/07 07:15:56;;;;;;;15.48;5.05;;;;;;;10.54;78.32;102455.84;1647317;85;21062;-80
2022/10/07 07:18:23;;;;;;;19.45;4.90;;;;;;;10.63;78.17;102447.11;1666272;85;21106;-80
2022/10/07 07:20:50;;;;;;;13.85;4.37;;;;;;;10.74;78.10;102445.04;1625399;86;21541;-81
2022/10/07 07:23:21;;;;;;;8.18;3.85;;;;;;;10.84;77.89;102449.05;1665840;85;21093;-80
2022/10/07 07:25:48;;;;;;;12.30;4.10;;;;;;;10.92;77.71;102451.64;1646709;85;21766;-80
2022/10/07 07:28:15;;;;;;;12.28;5.20;;;;;;;11.00;77.53;102441.09;1647900;85;21145;-80
2022/10/07 07:30:41;;;;;;;14.18;4.25;;;;;;;11.06;77.38;102443.14;1664478;85;21142;-80
2022/10/07 07:33:08;;;;;;;10.80;3.77;;;;;;;11.12;77.27;102442.54;1665068;85;21058;-80
2022/10/07 07:35:38;;;;;;;10.03;3.83;;;;;;;11.19;77.16;102442.02;1666961;85;21085;-86
2022/10/07 07:38:05;;;;;;;12.98;4.40;;;;;;;11.24;76.95;102446.69;1647695;85;21783;-86
2022/10/07 07:40:37;;;;;;;9.90;3.37;;;;;;;11.30;76.91;102443.45;1647900;85;20999;-88
2022/10/07 07:43:04;;;;;;;12.98;4.15;;;;;;;11.39;76.77;102441.27;1643987;85;21461;-86
2022/10/07 07:45:31;;;;;;;12.35;3.40;;;;;;;11.47;76.50;102442.53;1652462;85;21004;-86
2022/10/07 07:47:59;;;;;;;12.82;5.08;;;;;;;11.55;76.39;102434.09;1648573;85;21045;-86
2022/10/07 07:50:26;;;;;;;9.83;3.58;;;;;;;11.62;76.10;102437.09;1647032;85;22567;-86
2022/10/07 07:52:54;;;;;;;14.80;3.58;;;;;;;11.67;75.99;102441.25;1657085;85;21859;-87
2022/10/07 07:55:22;;;;;;;11.70;3.75;;;;;;;11.76;75.91;102430.25;1655046;85;21634;-87
2022/10/07 07:57:50;;;;;;;15.78;3.87;;;;;;;11.83;75.77;102431.03;1649532;85;21066;-89
2022/10/07 08:00:17;;;;;;;13.48;3.83;;;;;;;11.89;75.50;102425.13;1672446;84;21078;-87
2022/10/07 08:02:45;;;;;;;13.28;4.42;;;;;;;11.93;75.27;102425.79;1672741;85;22460;-81
2022/10/07 08:05:14;;;;;;;12.63;3.80;;;;;;;11.97;75.16;102427.30;1656463;85;21186;-87
2022/10/07 08:07:42;;;;;;;9.58;3.60;;;;;;;12.05;75.10;102426.37;1603292;87;21095;-87
2022/10/07 08:10:09;;;;;;;9.25;3.70;;;;;;;12.11;75.03;102421.36;1672524;84;21236;-87
2022/10/07 08:12:36;;;;;;;12.10;4.08;;;;;;;12.17;74.73;102425.59;1673445;84;21647;-87
2022/10/07 08:15:07;;;;;;;11.00;3.62;;;;;;;12.23;74.44;102421.00;1658094;84;21598;-87
2022/10/07 08:17:34;;;;;;;10.20;3.12;;;;;;;12.29;74.33;102420.37;1672236;85;21081;-87
2022/10/07 08:20:02;;;;;;;15.63;4.10;;;;;;;12.35;74.16;102418.92;1660217;84;21073;-81
2022/10/07 08:22:29;;;;;;;13.08;4.08;;;;;;;12.41;73.99;102419.19;1669513;83;21125;-81
2022/10/07 08:24:58;;;;;;;10.90;3.45;;;;;;;12.45;73.76;102414.52;1664678;85;21117;-81
2022/10/07 08:27:25;;;;;;;12.60;2.90;;;;;;;12.50;73.49;102415.12;1673257;85;22128;-81
2022/10/07 08:29:52;;;;;;;10.50;3.00;;;;;;;12.55;73.32;102410.53;1676289;85;21600;-81
2022/10/07 08:32:21;;;;;;;9.93;3.02;;;;;;;12.62;73.15;102410.40;1674823;85;21117;-81
2022/10/07 08:34:48;;;;;;;10.08;2.70;;;;;;;12.67;73.19;102396.98;1673955;84;21061;-81
2022/10/07 08:37:15;;;;;;;11.20;3.00;;;;;;;12.75;73.10;102401.27;1684163;84;21088;-81
2022/10/07 08:39:42;;;;;;;9.08;2.67;;;;;;;12.84;73.12;102405.19;1654426;85;22615;-87
2022/10/07 08:42:25;;;;;;;7.83;2.95;;;;;;;12.93;72.99;102401.12;1660730;84;21563;-81
2022/10/07 08:44:52;;;;;;;11.93;2.72;;;;;;;13.01;72.74;102406.32;1672297;84;21082;-81
2022/10/07 08:47:29;;;;;;;9.75;2.67;;;;;;;13.07;72.40;102399.06;1665112;85;21106;-80
2022/10/07 08:50:35;;;;;;;11.43;3.00;;;;;;;13.11;72.35;102395.70;1668754;85;21644;-81
2022/10/07 08:53:04;;;;;;;9.53;2.33;;;;;;;13.16;72.22;102391.08;1668666;85;21772;-80
2022/10/07 08:55:53;;;;;;;9.73;3.05;;;;;;;13.22;72.02;102386.03;1652996;85;21042;-86
2022/10/07 08:58:42;;;;;;;9.58;2.98;;;;;;;13.29;71.98;102383.63;1682578;85;21134;-86
2022/10/07 09:01:30;;;;;;;11.65;2.67;;;;;;;13.39;71.98;102381.45;1681889;85;21081;-80
2022/10/07 09:04:22;;;;;;;9.15;2.50;;;;;;;13.49;71.69;102385.36;1656870;84;21085;-86
2022/10/07 09:06:59;;;;;;;11.70;2.62;;;;;;;13.56;71.53;102381.22;1665152;84;23355;-86
2022/10/07 09:09:40;;;;;;;8.68;2.80;;;;;;;13.67;71.61;102379.89;1675340;85;21101;-86
2022/10/07 09:12:12;;;;;;;14.13;2.98;;;;;;;13.75;71.20;102369.16;1674766;85;21086;-80
2022/10/07 09:14:40;;;;;;;14.20;3.00;;;;;;;13.81;70.95;102369.81;1656814;85;21300;-86
2022/10/07 09:17:15;;;;;;;11.45;2.90;;;;;;;13.87;70.75;102373.11;1654524;85;21054;-81
2022/10/07 09:19:45;;;;;;;7.55;2.40;;;;;;;13.90;70.39;102364.87;1636261;85;21849;-86
2022/10/07 09:22:32;;;;;;;9.75;2.08;;;;;;;13.95;70.27;102354.47;1649711;85;21567;-81
2022/10/07 09:25:21;;;;;;;9.58;2.52;;;;;;;14.00;69.95;102355.51;1650999;85;21137;-80
2022/10/07 09:27:50;;;;;;;10.28;2.50;;;;;;;14.04;69.69;102353.48;1649246;85;21211;-81
2022/10/07 09:30:18;;;;;;;11.48;2.50;;;;;;;14.11;69.53;102346.64;1648148;85;21085;-81
2022/10/07 09:32:47;;;;;;;8.80;2.42;;;;;;;14.17;69.26;102347.78;1648554;85;22180;-81
2022/10/07 09:35:17;;;;;;;10.43;2.42;;;;;;;14.18;68.84;102338.97;1672678;85;21469;-86
2022/10/07 09:38:01;;;;;;;7.40;2.20;;;;;;;14.20;68.81;102338.59;1665074;85;21101;-81
2022/10/07 09:43:31;;;;;;;11.80;2.58;;;;;;;14.37;68.55;102326.38;1645240;85;21163;-81
2022/10/07 09:45:59;;;;;;;7.47;2.08;;;;;;;14.43;68.18;102326.58;1668561;85;22458;-86
2022/10/07 09:48:32;;;;;;;8.08;2.17;;;;;;;14.46;67.98;102329.34;1650330;85;21461;-87
2022/10/07 09:51:17;;;;;;;8.48;2.47;;;;;;;14.51;67.69;102341.02;1657905;85;21105;-86
2022/10/07 09:54:04;;;;;;;9.65;3.27;;;;;;;14.53;67.43;102322.09;1624247;87;21195;-87
2022/10/07 09:56:43;;;;;;;8.65;2.33;;;;;;;14.58;67.51;102324.91;1662356;85;21053;-87
2022/10/07 09:59:22;;;;;;;6.97;2.10;;;;;;;14.65;67.14;102320.73;1662343;85;21788;-81
2022/10/07 10:02:01;;;;;;;8.88;2.55;;;;;;;14.66;66.82;102315.89;1659479;85;21568;-87
2022/10/07 10:04:35;;;;;;;11.68;2.80;;;;;;;14.68;66.65;102309.81;1657474;85;21591;-80
2022/10/07 10:07:06;;;;;;;9.40;2.37;;;;;;;14.72;66.73;102301.11;1665598;85;21152;-80
2022/10/07 10:09:33;;;;;;;9.83;3.60;;;;;;;14.79;66.76;102296.92;1647913;85;21129;-81
2022/10/07 10:12:12;;;;;;;10.05;3.58;;;;;;;14.85;66.81;102302.41;1638580;85;21983;-87
2022/10/07 10:14:53;;;;;;;9.40;2.87;;;;;;;14.93;66.77;102296.91;1674582;85;21078;-81
2022/10/07 10:17:30;;;;;;;10.23;2.75;;;;;;;15.01;66.36;102290.95;1665870;85;21014;-86
2022/10/07 10:20:17;;;;;;;7.20;2.45;;;;;;;15.05;66.02;102275.61;1648935;85;21473;-86
2022/10/07 10:22:45;;;;;;;9.30;2.42;;;;;;;15.07;65.44;102279.20;1609636;87;21094;-86
2022/10/07 10:28:11;;;;;;;12.25;1.92;;;;;;;15.15;65.55;102281.69;1621593;87;21218;-87
2022/10/07 10:30:43;;;;;;;9.75;2.90;;;;;;;15.21;65.12;102278.33;1623603;87;21666;-86
2022/10/07 10:33:42;;;;;;;7.75;2.42;;;;;;;15.22;64.88;102273.08;1622930;86;21639;-86
2022/10/07 10:36:17;;;;;;;7.35;2.45;;;;;;;15.26;64.54;102266.08;1618132;86;21575;-87
2022/10/07 10:39:01;;;;;;;8.08;2.62;;;;;;;15.26;64.14;102255.06;1612603;87;21510;-88
2022/10/07 10:41:36;;;;;;;6.58;2.33;;;;;;;15.28;63.90;102259.09;1631806;86;21090;-81
2022/10/07 10:44:20;;;;;;;11.73;2.40;;;;;;;15.30;63.97;102264.91;1625066;87;21198;-87
2022/10/07 10:47:14;;;;;;;7.72;2.20;;;;;;;15.33;63.82;102251.74;1622751;87;21095;-82
2022/10/07 10:50:27;;;;;;;7.17;2.72;;;;;;;15.38;63.45;102250.97;1630873;86;21613;-81
2022/10/07 10:53:06;;;;;;;5.90;2.75;;;;;;;15.40;63.50;102246.61;1621432;87;21901;-87
2022/10/07 10:56:30;;;;;;;8.75;3.55;;;;;;;15.44;63.52;102244.07;1623266;87;21674;-81
2022/10/07 10:59:12;;;;;;;20.90;10.13;;;;;;;15.50;63.56;102236.31;1655430;85;21075;-81
2022/10/07 11:01:42;;;;;;;19.57;9.63;;;;;;;15.55;63.52;102228.02;1649461;85;21062;-81
2022/10/07 11:04:41;;;;;;;17.30;7.20;;;;;;;15.63;63.45;102226.91;1650435;85;21035;-82
2022/10/07 11:07:22;;;;;;;23.15;10.60;;;;;;;15.68;63.39;102224.41;1649724;85;21861;-87
2022/10/07 11:10:06;;;;;;;16.05;6.75;;;;;;;15.75;63.36;102222.42;1662270;84;20990;-87
2022/10/07 11:12:40;;;;;;;10.85;3.70;;;;;;;15.80;63.15;102215.89;1685550;85;21081;-88
2022/10/07 11:15:16;;;;;;;;;;;;;;;15.83;62.90;102213.34;1681371;84;21449;-87
2022/10/07 11:17:43;;;;;;;4.75;2.10;;;;;;;15.83;62.05;102204.94;1674040;85;20240;-81
2022/10/07 11:20:34;;;;;;;10.72;2.87;;;;;;;15.85;62.15;102211.18;1659570;85;21747;-81
2022/10/07 11:23:19;;;;;;;8.18;2.52;;;;;;;15.86;61.83;102207.68;1675859;85;21109;-87
2022/10/07 11:26:18;;;;;;;8.33;2.92;;;;;;;15.86;61.53;102204.10;1672162;85;21141;-87
2022/10/07 11:28:45;;;;;;;9.83;3.00;;;;;;;15.87;61.37;102196.63;1676253;84;21125;-87
2022/10/07 11:31:34;;;;;;;5.37;2.37;;;;;;;15.88;61.26;102198.44;1657230;84;21093;-87
2022/10/07 11:34:26;;;;;;;12.03;2.52;;;;;;;15.88;61.02;102194.45;1659797;84;21799;-87
2022/10/07 11:37:04;;;;;;;8.15;2.40;;;;;;;15.89;60.83;102189.59;1678335;85;21912;-88
2022/10/07 11:39:31;;;;;;;6.90;2.22;;;;;;;15.92;60.74;102182.61;1681362;85;21054;-81
2022/10/07 11:42:23;;;;;;;6.33;2.40;;;;;;;15.95;60.63;102173.80;1684168;85;21097;-81
2022/10/07 11:45:01;;;;;;;6.37;2.33;;;;;;;16.00;60.38;102171.28;1680659;83;21003;-81
2022/10/07 11:47:48;;;;;;;8.95;3.10;;;;;;;16.02;60.37;102170.45;1684737;85;21725;-89
2022/10/07 11:50:36;;;;;;;12.65;4.90;;;;;;;16.02;60.34;102159.83;1684103;85;21543;-91
2022/10/07 11:53:08;;;;;;;8.58;3.70;;;;;;;16.05;60.21;102160.36;1665320;85;21093;-89
2022/10/07 11:55:45;;;;;;;9.78;3.52;;;;;;;16.09;60.20;102152.48;1665367;85;21088;-88
2022/10/07 11:58:26;;;;;;;8.78;3.00;;;;;;;16.12;60.23;102150.33;1672239;84;21031;-89